sensor_id;sensor_type;location;lat;lon;timestamp;P1;durP1;ratioP1;P2;durP2;ratioP2
80707;SDS011;70222;49.204;-122.940;2023-06-19T00:00:12;3.53;;;1.88;;
80707;SDS011;70222;49.204;-122.940;2023-06-19T00:02:41;3.45;;;1.83;;
80707;SDS011;70222;49.204;-122.940;2023-06-19T00:05:08;2.03;;;1.40;;
80707;SDS011;70222;49.204;-122.940;2023-06-19T00:07:38;2.72;;;1.30;;
80707;SDS011;70222;49.204;-122.940;2023-06-19T00:10:05;1.58;;;1.33;;
80707;SDS011;70222;49.204;-122.940;2023-06-19T00:12:31;2.55;;;1.42;;
80707;SDS011;70222;49.204;-122.940;2023-06-19T00:17:24;2.47;;;1.40;;
80707;SDS011;70222;49.204;-122.940;2023-06-19T00:19:52;1.80;;;1.50;;
80707;SDS011;70222;49.204;-122.940;2023-06-19T00:22:18;2.00;;;1.80;;
80707;SDS011;70222;49.204;-122.940;2023-06-19T00:24:45;3.35;;;1.60;;
80707;SDS011;70222;49.204;-122.940;2023-06-19T00:27:11;2.92;;;1.60;;
80707;SDS011;70222;49.204;-122.940;2023-06-19T00:29:37;3.28;;;2.08;;
80707;SDS011;70222;49.204;-122.940;2023-06-19T00:32:03;2.33;;;1.30;;
80707;SDS011;70222;49.204;-122.940;2023-06-19T00:34:30;1.85;;;1.42;;
80707;SDS011;70222;49.204;-122.940;2023-06-19T00:36:56;2.95;;;1.63;;
80707;SDS011;70222;49.204;-122.940;2023-06-19T00:39:23;2.40;;;1.83;;
80707;SDS011;70222;49.204;-122.940;2023-06-19T00:41:54;1.90;;;1.60;;
80707;SDS011;70222;49.204;-122.940;2023-06-19T00:44:21;4.18;;;2.03;;
80707;SDS011;70222;49.204;-122.940;2023-06-19T00:46:47;2.63;;;1.90;;
80707;SDS011;70222;49.204;-122.940;2023-06-19T00:49:16;2.38;;;1.52;;
80707;SDS011;70222;49.204;-122.940;2023-06-19T00:51:45;2.20;;;1.50;;
80707;SDS011;70222;49.204;-122.940;2023-06-19T00:54:11;2.88;;;1.70;;
80707;SDS011;70222;49.204;-122.940;2023-06-19T00:56:38;2.97;;;1.80;;
80707;SDS011;70222;49.204;-122.940;2023-06-19T00:59:11;2.22;;;1.40;;
80707;SDS011;70222;49.204;-122.940;2023-06-19T01:01:43;2.08;;;1.70;;
80707;SDS011;70222;49.204;-122.940;2023-06-19T01:04:10;2.47;;;1.73;;
80707;SDS011;70222;49.204;-122.940;2023-06-19T01:06:44;2.53;;;1.50;;
80707;SDS011;70222;49.204;-122.940;2023-06-19T01:09:16;2.72;;;1.70;;
80707;SDS011;70222;49.204;-122.940;2023-06-19T01:11:44;3.25;;;1.63;;
80707;SDS011;70222;49.204;-122.940;2023-06-19T01:14:14;2.83;;;1.73;;
80707;SDS011;70222;49.204;-122.940;2023-06-19T01:16:45;1.92;;;1.55;;
80707;SDS011;70222;49.204;-122.940;2023-06-19T01:19:15;3.88;;;1.70;;
80707;SDS011;70222;49.204;-122.940;2023-06-19T01:21:45;2.30;;;1.60;;
80707;SDS011;70222;49.204;-122.940;2023-06-19T01:24:12;2.30;;;1.65;;
80707;SDS011;70222;49.204;-122.940;2023-06-19T01:26:39;2.15;;;1.65;;
80707;SDS011;70222;49.204;-122.940;2023-06-19T01:29:06;1.67;;;1.42;;
80707;SDS011;70222;49.204;-122.940;2023-06-19T01:31:39;3.05;;;1.70;;
80707;SDS011;70222;49.204;-122.940;2023-06-19T01:34:13;2.38;;;1.73;;
80707;SDS011;70222;49.204;-122.940;2023-06-19T01:36:41;3.00;;;1.60;;
80707;SDS011;70222;49.204;-122.940;2023-06-19T01:39:08;2.75;;;1.60;;
80707;SDS011;70222;49.204;-122.940;2023-06-19T01:41:35;3.33;;;2.15;;
80707;SDS011;70222;49.204;-122.940;2023-06-19T01:44:02;2.50;;;1.50;;
80707;SDS011;70222;49.204;-122.940;2023-06-19T01:46:29;3.20;;;2.05;;
80707;SDS011;70222;49.204;-122.940;2023-06-19T01:48:55;3.50;;;1.65;;
80707;SDS011;70222;49.204;-122.940;2023-06-19T01:51:21;2.50;;;1.65;;
80707;SDS011;70222;49.204;-122.940;2023-06-19T01:53:47;2.33;;;1.52;;
80707;SDS011;70222;49.204;-122.940;2023-06-19T01:56:13;2.08;;;1.50;;
80707;SDS011;70222;49.204;-122.940;2023-06-19T01:58:39;2.60;;;1.92;;
80707;SDS011;70222;49.204;-122.940;2023-06-19T02:01:05;5.28;;;3.72;;
80707;SDS011;70222;49.204;-122.940;2023-06-19T02:03:32;4.25;;;2.33;;
80707;SDS011;70222;49.204;-122.940;2023-06-19T02:05:58;2.97;;;1.83;;
80707;SDS011;70222;49.204;-122.940;2023-06-19T02:08:24;2.58;;;1.67;;
80707;SDS011;70222;49.204;-122.940;2023-06-19T02:10:50;3.17;;;1.60;;
80707;SDS011;70222;49.204;-122.940;2023-06-19T02:13:16;2.80;;;1.40;;
80707;SDS011;70222;49.204;-122.940;2023-06-19T02:15:42;2.05;;;1.40;;
80707;SDS011;70222;49.204;-122.940;2023-06-19T02:18:08;2.22;;;1.23;;
80707;SDS011;70222;49.204;-122.940;2023-06-19T02:20:34;1.90;;;1.30;;
80707;SDS011;70222;49.204;-122.940;2023-06-19T02:23:00;2.03;;;1.20;;
80707;SDS011;70222;49.204;-122.940;2023-06-19T02:25:26;2.50;;;1.48;;
80707;SDS011;70222;49.204;-122.940;2023-06-19T02:27:52;3.22;;;1.15;;
80707;SDS011;70222;49.204;-122.940;2023-06-19T02:30:18;2.13;;;1.30;;
80707;SDS011;70222;49.204;-122.940;2023-06-19T02:32:45;1.77;;;1.40;;
80707;SDS011;70222;49.204;-122.940;2023-06-19T02:35:11;1.88;;;1.35;;
80707;SDS011;70222;49.204;-122.940;2023-06-19T02:37:37;1.83;;;1.20;;
80707;SDS011;70222;49.204;-122.940;2023-06-19T02:40:04;1.75;;;1.23;;
80707;SDS011;70222;49.204;-122.940;2023-06-19T02:42:30;1.25;;;1.10;;
80707;SDS011;70222;49.204;-122.940;2023-06-19T02:44:56;2.65;;;1.52;;
80707;SDS011;70222;49.204;-122.940;2023-06-19T02:47:30;2.00;;;1.40;;
80707;SDS011;70222;49.204;-122.940;2023-06-19T02:50:01;4.20;;;1.40;;
80707;SDS011;70222;49.204;-122.940;2023-06-19T02:52:29;2.33;;;1.50;;
80707;SDS011;70222;49.204;-122.940;2023-06-19T02:54:55;2.33;;;1.55;;
80707;SDS011;70222;49.204;-122.940;2023-06-19T02:57:21;2.45;;;1.50;;
80707;SDS011;70222;49.204;-122.940;2023-06-19T02:59:47;2.25;;;1.42;;
80707;SDS011;70222;49.204;-122.940;2023-06-19T03:02:14;2.60;;;1.77;;
80707;SDS011;70222;49.204;-122.940;2023-06-19T03:04:40;1.85;;;1.40;;
80707;SDS011;70222;49.204;-122.940;2023-06-19T03:07:06;1.45;;;1.20;;
80707;SDS011;70222;49.204;-122.940;2023-06-19T03:09:32;1.13;;;1.00;;
80707;SDS011;70222;49.204;-122.940;2023-06-19T03:11:58;2.35;;;1.40;;
80707;SDS011;70222;49.204;-122.940;2023-06-19T03:14:24;1.88;;;1.23;;
80707;SDS011;70222;49.204;-122.940;2023-06-19T03:16:51;2.22;;;1.30;;
80707;SDS011;70222;49.204;-122.940;2023-06-19T03:19:17;2.58;;;1.30;;
80707;SDS011;70222;49.204;-122.940;2023-06-19T03:21:43;3.42;;;1.30;;
80707;SDS011;70222;49.204;-122.940;2023-06-19T03:24:09;2.17;;;1.10;;
80707;SDS011;70222;49.204;-122.940;2023-06-19T03:26:35;1.40;;;1.15;;
80707;SDS011;70222;49.204;-122.940;2023-06-19T03:29:01;3.03;;;1.20;;
80707;SDS011;70222;49.204;-122.940;2023-06-19T03:31:27;1.73;;;1.20;;
80707;SDS011;70222;49.204;-122.940;2023-06-19T03:33:53;1.45;;;1.30;;
80707;SDS011;70222;49.204;-122.940;2023-06-19T03:36:19;1.48;;;1.20;;
80707;SDS011;70222;49.204;-122.940;2023-06-19T03:38:48;1.33;;;1.15;;
80707;SDS011;70222;49.204;-122.940;2023-06-19T03:41:14;1.65;;;1.33;;
80707;SDS011;70222;49.204;-122.940;2023-06-19T03:43:40;1.70;;;1.30;;
80707;SDS011;70222;49.204;-122.940;2023-06-19T03:46:06;1.50;;;1.30;;
80707;SDS011;70222;49.204;-122.940;2023-06-19T03:48:32;1.63;;;1.20;;
80707;SDS011;70222;49.204;-122.940;2023-06-19T03:50:58;1.75;;;1.35;;
80707;SDS011;70222;49.204;-122.940;2023-06-19T03:53:25;3.05;;;1.50;;
80707;SDS011;70222;49.204;-122.940;2023-06-19T03:55:51;1.85;;;1.33;;
80707;SDS011;70222;49.204;-122.940;2023-06-19T03:58:17;2.05;;;1.10;;
80707;SDS011;70222;49.204;-122.940;2023-06-19T04:00:43;2.17;;;1.30;;
80707;SDS011;70222;49.204;-122.940;2023-06-19T04:03:09;2.88;;;1.35;;
80707;SDS011;70222;49.204;-122.940;2023-06-19T04:05:35;1.58;;;1.20;;
80707;SDS011;70222;49.204;-122.940;2023-06-19T04:08:01;2.20;;;1.40;;
80707;SDS011;70222;49.204;-122.940;2023-06-19T04:10:28;1.85;;;1.30;;
80707;SDS011;70222;49.204;-122.940;2023-06-19T04:12:54;2.65;;;1.30;;
80707;SDS011;70222;49.204;-122.940;2023-06-19T04:15:23;2.22;;;1.25;;
80707;SDS011;70222;49.204;-122.940;2023-06-19T04:17:49;2.33;;;1.30;;
80707;SDS011;70222;49.204;-122.940;2023-06-19T04:20:15;2.63;;;1.30;;
80707;SDS011;70222;49.204;-122.940;2023-06-19T04:22:42;2.17;;;1.30;;
80707;SDS011;70222;49.204;-122.940;2023-06-19T04:25:09;2.20;;;1.25;;
80707;SDS011;70222;49.204;-122.940;2023-06-19T04:27:38;2.97;;;1.40;;
80707;SDS011;70222;49.204;-122.940;2023-06-19T04:30:05;3.83;;;1.42;;
80707;SDS011;70222;49.204;-122.940;2023-06-19T04:32:34;1.73;;;1.38;;
80707;SDS011;70222;49.204;-122.940;2023-06-19T04:35:00;2.33;;;1.50;;
80707;SDS011;70222;49.204;-122.940;2023-06-19T04:37:27;2.28;;;1.35;;
80707;SDS011;70222;49.204;-122.940;2023-06-19T04:39:53;2.90;;;1.60;;
80707;SDS011;70222;49.204;-122.940;2023-06-19T04:42:19;1.80;;;1.58;;
80707;SDS011;70222;49.204;-122.940;2023-06-19T04:44:46;2.20;;;1.33;;
80707;SDS011;70222;49.204;-122.940;2023-06-19T04:47:13;2.63;;;1.45;;
80707;SDS011;70222;49.204;-122.940;2023-06-19T04:49:41;3.85;;;1.67;;
80707;SDS011;70222;49.204;-122.940;2023-06-19T04:52:07;2.72;;;2.03;;
80707;SDS011;70222;49.204;-122.940;2023-06-19T04:54:34;3.92;;;1.65;;
80707;SDS011;70222;49.204;-122.940;2023-06-19T04:57:01;4.18;;;2.15;;
80707;SDS011;70222;49.204;-122.940;2023-06-19T04:59:27;3.40;;;1.80;;
80707;SDS011;70222;49.204;-122.940;2023-06-19T05:01:53;2.72;;;1.70;;
80707;SDS011;70222;49.204;-122.940;2023-06-19T05:04:20;3.67;;;1.90;;
80707;SDS011;70222;49.204;-122.940;2023-06-19T05:06:48;2.33;;;1.70;;
80707;SDS011;70222;49.204;-122.940;2023-06-19T05:09:14;4.05;;;2.15;;
80707;SDS011;70222;49.204;-122.940;2023-06-19T05:11:40;3.17;;;2.17;;
80707;SDS011;70222;49.204;-122.940;2023-06-19T05:14:06;2.80;;;1.80;;
80707;SDS011;70222;49.204;-122.940;2023-06-19T05:16:35;2.72;;;1.70;;
80707;SDS011;70222;49.204;-122.940;2023-06-19T05:19:01;3.88;;;2.03;;
80707;SDS011;70222;49.204;-122.940;2023-06-19T05:21:27;3.63;;;1.95;;
80707;SDS011;70222;49.204;-122.940;2023-06-19T05:23:54;2.55;;;2.00;;
80707;SDS011;70222;49.204;-122.940;2023-06-19T05:26:20;3.13;;;1.90;;
80707;SDS011;70222;49.204;-122.940;2023-06-19T05:28:47;3.55;;;2.15;;
80707;SDS011;70222;49.204;-122.940;2023-06-19T05:31:13;4.30;;;2.22;;
80707;SDS011;70222;49.204;-122.940;2023-06-19T05:33:40;4.38;;;2.40;;
80707;SDS011;70222;49.204;-122.940;2023-06-19T05:36:07;3.05;;;1.85;;
80707;SDS011;70222;49.204;-122.940;2023-06-19T05:38:33;5.53;;;2.53;;
80707;SDS011;70222;49.204;-122.940;2023-06-19T05:40:59;5.35;;;2.40;;
80707;SDS011;70222;49.204;-122.940;2023-06-19T05:43:25;3.72;;;2.30;;
80707;SDS011;70222;49.204;-122.940;2023-06-19T05:45:55;3.47;;;2.17;;
80707;SDS011;70222;49.204;-122.940;2023-06-19T05:48:24;3.60;;;2.20;;
80707;SDS011;70222;49.204;-122.940;2023-06-19T05:50:51;3.78;;;2.00;;
80707;SDS011;70222;49.204;-122.940;2023-06-19T05:53:18;4.15;;;2.28;;
80707;SDS011;70222;49.204;-122.940;2023-06-19T05:55:45;4.10;;;2.20;;
80707;SDS011;70222;49.204;-122.940;2023-06-19T05:58:11;4.93;;;2.58;;
80707;SDS011;70222;49.204;-122.940;2023-06-19T06:00:37;3.78;;;2.22;;
80707;SDS011;70222;49.204;-122.940;2023-06-19T06:03:03;3.40;;;1.92;;
80707;SDS011;70222;49.204;-122.940;2023-06-19T06:05:29;3.35;;;2.10;;
80707;SDS011;70222;49.204;-122.940;2023-06-19T06:07:55;4.40;;;2.30;;
80707;SDS011;70222;49.204;-122.940;2023-06-19T06:10:22;3.65;;;1.98;;
80707;SDS011;70222;49.204;-122.940;2023-06-19T06:12:51;3.42;;;2.08;;
80707;SDS011;70222;49.204;-122.940;2023-06-19T06:15:18;4.32;;;2.38;;
80707;SDS011;70222;49.204;-122.940;2023-06-19T06:17:44;3.08;;;1.95;;
80707;SDS011;70222;49.204;-122.940;2023-06-19T06:20:11;3.50;;;2.38;;
80707;SDS011;70222;49.204;-122.940;2023-06-19T06:22:38;5.28;;;2.70;;
80707;SDS011;70222;49.204;-122.940;2023-06-19T06:27:31;5.20;;;2.13;;
80707;SDS011;70222;49.204;-122.940;2023-06-19T06:29:58;3.63;;;2.13;;
80707;SDS011;70222;49.204;-122.940;2023-06-19T06:32:24;3.75;;;2.10;;
80707;SDS011;70222;49.204;-122.940;2023-06-19T06:34:51;6.82;;;2.08;;
80707;SDS011;70222;49.204;-122.940;2023-06-19T06:37:17;3.83;;;2.33;;
80707;SDS011;70222;49.204;-122.940;2023-06-19T06:39:48;3.45;;;2.17;;
80707;SDS011;70222;49.204;-122.940;2023-06-19T06:44:41;4.28;;;2.22;;
80707;SDS011;70222;49.204;-122.940;2023-06-19T06:47:07;3.80;;;2.35;;
80707;SDS011;70222;49.204;-122.940;2023-06-19T06:49:33;4.32;;;1.95;;
80707;SDS011;70222;49.204;-122.940;2023-06-19T06:52:04;3.55;;;1.92;;
80707;SDS011;70222;49.204;-122.940;2023-06-19T06:54:30;2.92;;;2.05;;
80707;SDS011;70222;49.204;-122.940;2023-06-19T06:56:57;3.05;;;1.98;;
80707;SDS011;70222;49.204;-122.940;2023-06-19T06:59:25;4.93;;;2.25;;
80707;SDS011;70222;49.204;-122.940;2023-06-19T07:01:52;3.67;;;1.95;;
80707;SDS011;70222;49.204;-122.940;2023-06-19T07:04:21;3.47;;;2.30;;
80707;SDS011;70222;49.204;-122.940;2023-06-19T07:06:48;4.30;;;2.20;;
80707;SDS011;70222;49.204;-122.940;2023-06-19T07:09:14;3.10;;;2.03;;
80707;SDS011;70222;49.204;-122.940;2023-06-19T07:11:41;3.13;;;1.98;;
80707;SDS011;70222;49.204;-122.940;2023-06-19T07:14:07;5.43;;;2.20;;
80707;SDS011;70222;49.204;-122.940;2023-06-19T07:16:33;5.03;;;2.78;;
80707;SDS011;70222;49.204;-122.940;2023-06-19T07:19:00;3.67;;;2.00;;
80707;SDS011;70222;49.204;-122.940;2023-06-19T07:21:26;3.25;;;1.80;;
80707;SDS011;70222;49.204;-122.940;2023-06-19T07:23:53;3.70;;;2.20;;
80707;SDS011;70222;49.204;-122.940;2023-06-19T07:26:20;3.03;;;1.90;;
80707;SDS011;70222;49.204;-122.940;2023-06-19T07:28:46;3.95;;;2.10;;
80707;SDS011;70222;49.204;-122.940;2023-06-19T07:31:13;3.20;;;2.30;;
80707;SDS011;70222;49.204;-122.940;2023-06-19T07:33:39;5.30;;;2.40;;
80707;SDS011;70222;49.204;-122.940;2023-06-19T07:36:05;2.78;;;1.73;;
80707;SDS011;70222;49.204;-122.940;2023-06-19T07:38:31;1.92;;;1.70;;
80707;SDS011;70222;49.204;-122.940;2023-06-19T07:40:57;3.40;;;2.00;;
80707;SDS011;70222;49.204;-122.940;2023-06-19T07:43:23;3.70;;;2.40;;
80707;SDS011;70222;49.204;-122.940;2023-06-19T07:45:50;3.97;;;2.10;;
80707;SDS011;70222;49.204;-122.940;2023-06-19T07:48:18;3.97;;;2.15;;
80707;SDS011;70222;49.204;-122.940;2023-06-19T07:50:45;2.97;;;1.90;;
80707;SDS011;70222;49.204;-122.940;2023-06-19T07:53:11;3.60;;;2.13;;
80707;SDS011;70222;49.204;-122.940;2023-06-19T07:55:37;3.55;;;2.10;;
80707;SDS011;70222;49.204;-122.940;2023-06-19T07:58:03;3.00;;;1.90;;
80707;SDS011;70222;49.204;-122.940;2023-06-19T08:00:29;5.97;;;2.50;;
80707;SDS011;70222;49.204;-122.940;2023-06-19T08:02:55;4.18;;;2.20;;
80707;SDS011;70222;49.204;-122.940;2023-06-19T08:05:21;3.17;;;2.20;;
80707;SDS011;70222;49.204;-122.940;2023-06-19T08:07:48;3.63;;;2.03;;
80707;SDS011;70222;49.204;-122.940;2023-06-19T08:10:14;4.55;;;2.40;;
80707;SDS011;70222;49.204;-122.940;2023-06-19T08:12:41;3.67;;;1.90;;
80707;SDS011;70222;49.204;-122.940;2023-06-19T08:15:08;3.65;;;2.20;;
80707;SDS011;70222;49.204;-122.940;2023-06-19T08:17:34;3.17;;;1.85;;
80707;SDS011;70222;49.204;-122.940;2023-06-19T08:20:01;3.38;;;2.20;;
80707;SDS011;70222;49.204;-122.940;2023-06-19T08:22:30;5.22;;;2.50;;
80707;SDS011;70222;49.204;-122.940;2023-06-19T08:24:56;4.43;;;2.30;;
80707;SDS011;70222;49.204;-122.940;2023-06-19T08:27:22;4.15;;;2.17;;
80707;SDS011;70222;49.204;-122.940;2023-06-19T08:29:49;3.90;;;2.20;;
80707;SDS011;70222;49.204;-122.940;2023-06-19T08:32:15;4.25;;;2.20;;
80707;SDS011;70222;49.204;-122.940;2023-06-19T08:34:41;4.53;;;2.33;;
80707;SDS011;70222;49.204;-122.940;2023-06-19T08:37:08;5.22;;;2.40;;
80707;SDS011;70222;49.204;-122.940;2023-06-19T08:39:34;3.67;;;1.85;;
80707;SDS011;70222;49.204;-122.940;2023-06-19T08:42:08;5.00;;;2.40;;
80707;SDS011;70222;49.204;-122.940;2023-06-19T08:44:34;4.18;;;2.50;;
80707;SDS011;70222;49.204;-122.940;2023-06-19T08:47:04;3.65;;;2.28;;
80707;SDS011;70222;49.204;-122.940;2023-06-19T08:49:31;4.90;;;2.13;;
80707;SDS011;70222;49.204;-122.940;2023-06-19T08:52:01;3.50;;;2.20;;
80707;SDS011;70222;49.204;-122.940;2023-06-19T08:54:28;3.20;;;2.25;;
80707;SDS011;70222;49.204;-122.940;2023-06-19T08:56:54;4.97;;;2.30;;
80707;SDS011;70222;49.204;-122.940;2023-06-19T08:59:20;4.20;;;2.05;;
80707;SDS011;70222;49.204;-122.940;2023-06-19T09:01:47;3.17;;;1.98;;
80707;SDS011;70222;49.204;-122.940;2023-06-19T09:04:18;3.85;;;2.47;;
80707;SDS011;70222;49.204;-122.940;2023-06-19T09:06:47;3.00;;;1.95;;
80707;SDS011;70222;49.204;-122.940;2023-06-19T09:09:17;3.15;;;1.70;;
80707;SDS011;70222;49.204;-122.940;2023-06-19T09:12:00;3.95;;;1.92;;
80707;SDS011;70222;49.204;-122.940;2023-06-19T09:14:36;4.20;;;1.95;;
80707;SDS011;70222;49.204;-122.940;2023-06-19T09:17:04;4.72;;;2.03;;
80707;SDS011;70222;49.204;-122.940;2023-06-19T09:19:32;3.58;;;2.65;;
80707;SDS011;70222;49.204;-122.940;2023-06-19T09:22:00;5.22;;;2.42;;
80707;SDS011;70222;49.204;-122.940;2023-06-19T09:24:37;2.80;;;1.92;;
80707;SDS011;70222;49.204;-122.940;2023-06-19T09:27:12;7.10;;;1.90;;
80707;SDS011;70222;49.204;-122.940;2023-06-19T09:29:42;4.28;;;2.05;;
80707;SDS011;70222;49.204;-122.940;2023-06-19T09:32:20;3.83;;;1.80;;
80707;SDS011;70222;49.204;-122.940;2023-06-19T09:34:50;4.38;;;2.33;;
80707;SDS011;70222;49.204;-122.940;2023-06-19T09:37:22;4.13;;;1.80;;
80707;SDS011;70222;49.204;-122.940;2023-06-19T09:39:53;7.63;;;1.90;;
80707;SDS011;70222;49.204;-122.940;2023-06-19T09:42:39;4.95;;;1.90;;
80707;SDS011;70222;49.204;-122.940;2023-06-19T09:45:08;3.13;;;2.05;;
80707;SDS011;70222;49.204;-122.940;2023-06-19T09:47:39;3.83;;;1.60;;
80707;SDS011;70222;49.204;-122.940;2023-06-19T09:50:11;3.90;;;1.70;;
80707;SDS011;70222;49.204;-122.940;2023-06-19T09:52:38;7.07;;;2.70;;
80707;SDS011;70222;49.204;-122.940;2023-06-19T09:55:06;3.70;;;2.13;;
80707;SDS011;70222;49.204;-122.940;2023-06-19T09:57:34;5.30;;;1.80;;
80707;SDS011;70222;49.204;-122.940;2023-06-19T10:00:03;2.90;;;1.80;;
80707;SDS011;70222;49.204;-122.940;2023-06-19T10:02:36;4.10;;;1.77;;
80707;SDS011;70222;49.204;-122.940;2023-06-19T10:05:03;4.18;;;2.10;;
80707;SDS011;70222;49.204;-122.940;2023-06-19T10:07:33;4.20;;;2.10;;
80707;SDS011;70222;49.204;-122.940;2023-06-19T10:10:02;3.08;;;1.58;;
80707;SDS011;70222;49.204;-122.940;2023-06-19T10:18:07;4.85;;;1.90;;
80707;SDS011;70222;49.204;-122.940;2023-06-19T10:20:35;3.85;;;1.85;;
80707;SDS011;70222;49.204;-122.940;2023-06-19T10:25:37;3.97;;;1.98;;
80707;SDS011;70222;49.204;-122.940;2023-06-19T10:28:15;4.30;;;1.98;;
80707;SDS011;70222;49.204;-122.940;2023-06-19T10:30:57;2.90;;;1.52;;
80707;SDS011;70222;49.204;-122.940;2023-06-19T10:33:25;4.57;;;2.33;;
80707;SDS011;70222;49.204;-122.940;2023-06-19T10:35:52;3.70;;;1.80;;
80707;SDS011;70222;49.204;-122.940;2023-06-19T10:38:19;4.60;;;1.90;;
80707;SDS011;70222;49.204;-122.940;2023-06-19T10:40:45;3.85;;;1.70;;
80707;SDS011;70222;49.204;-122.940;2023-06-19T10:43:12;2.88;;;1.73;;
80707;SDS011;70222;49.204;-122.940;2023-06-19T10:45:44;2.83;;;1.85;;
80707;SDS011;70222;49.204;-122.940;2023-06-19T10:48:10;3.83;;;1.58;;
80707;SDS011;70222;49.204;-122.940;2023-06-19T10:50:41;3.15;;;1.70;;
80707;SDS011;70222;49.204;-122.940;2023-06-19T10:53:08;3.65;;;1.92;;
80707;SDS011;70222;49.204;-122.940;2023-06-19T10:55:34;3.78;;;1.90;;
80707;SDS011;70222;49.204;-122.940;2023-06-19T10:58:00;4.18;;;1.60;;
80707;SDS011;70222;49.204;-122.940;2023-06-19T11:00:27;2.42;;;1.48;;
80707;SDS011;70222;49.204;-122.940;2023-06-19T11:02:58;4.10;;;1.60;;
80707;SDS011;70222;49.204;-122.940;2023-06-19T11:05:25;3.00;;;1.70;;
80707;SDS011;70222;49.204;-122.940;2023-06-19T11:10:19;3.65;;;1.60;;
80707;SDS011;70222;49.204;-122.940;2023-06-19T11:12:47;2.92;;;1.52;;
80707;SDS011;70222;49.204;-122.940;2023-06-19T11:15:15;3.80;;;1.58;;
80707;SDS011;70222;49.204;-122.940;2023-06-19T11:17:41;4.47;;;1.70;;
80707;SDS011;70222;49.204;-122.940;2023-06-19T11:20:09;4.55;;;1.80;;
80707;SDS011;70222;49.204;-122.940;2023-06-19T11:22:40;6.38;;;2.67;;
80707;SDS011;70222;49.204;-122.940;2023-06-19T11:25:07;4.18;;;1.73;;
80707;SDS011;70222;49.204;-122.940;2023-06-19T11:27:36;6.95;;;2.03;;
80707;SDS011;70222;49.204;-122.940;2023-06-19T11:30:04;4.90;;;1.67;;
80707;SDS011;70222;49.204;-122.940;2023-06-19T11:32:36;4.95;;;1.60;;
80707;SDS011;70222;49.204;-122.940;2023-06-19T11:35:10;3.25;;;1.50;;
80707;SDS011;70222;49.204;-122.940;2023-06-19T11:37:40;3.35;;;1.60;;
80707;SDS011;70222;49.204;-122.940;2023-06-19T11:40:07;3.85;;;2.22;;
80707;SDS011;70222;49.204;-122.940;2023-06-19T11:42:54;4.57;;;1.70;;
80707;SDS011;70222;49.204;-122.940;2023-06-19T11:45:20;5.05;;;2.05;;
80707;SDS011;70222;49.204;-122.940;2023-06-19T11:47:48;3.28;;;1.92;;
80707;SDS011;70222;49.204;-122.940;2023-06-19T11:50:14;4.35;;;1.88;;
80707;SDS011;70222;49.204;-122.940;2023-06-19T11:52:43;3.00;;;1.90;;
80707;SDS011;70222;49.204;-122.940;2023-06-19T11:55:10;3.40;;;1.73;;
80707;SDS011;70222;49.204;-122.940;2023-06-19T11:57:36;2.95;;;1.63;;
80707;SDS011;70222;49.204;-122.940;2023-06-19T12:00:02;2.80;;;1.92;;
80707;SDS011;70222;49.204;-122.940;2023-06-19T12:02:36;4.80;;;2.13;;
80707;SDS011;70222;49.204;-122.940;2023-06-19T12:05:02;2.80;;;1.60;;
80707;SDS011;70222;49.204;-122.940;2023-06-19T12:07:28;4.70;;;1.75;;
80707;SDS011;70222;49.204;-122.940;2023-06-19T12:09:54;3.67;;;1.60;;
80707;SDS011;70222;49.204;-122.940;2023-06-19T12:12:20;3.42;;;1.75;;
80707;SDS011;70222;49.204;-122.940;2023-06-19T12:14:47;3.20;;;1.58;;
80707;SDS011;70222;49.204;-122.940;2023-06-19T12:17:13;2.88;;;1.50;;
80707;SDS011;70222;49.204;-122.940;2023-06-19T12:19:39;2.17;;;1.40;;
80707;SDS011;70222;49.204;-122.940;2023-06-19T12:22:05;3.55;;;1.48;;
80707;SDS011;70222;49.204;-122.940;2023-06-19T12:24:31;3.40;;;1.65;;
80707;SDS011;70222;49.204;-122.940;2023-06-19T12:26:57;3.67;;;1.65;;
80707;SDS011;70222;49.204;-122.940;2023-06-19T12:29:23;2.95;;;1.50;;
80707;SDS011;70222;49.204;-122.940;2023-06-19T12:31:49;4.82;;;1.70;;
80707;SDS011;70222;49.204;-122.940;2023-06-19T12:34:15;3.50;;;1.75;;
80707;SDS011;70222;49.204;-122.940;2023-06-19T12:36:43;2.38;;;1.60;;
80707;SDS011;70222;49.204;-122.940;2023-06-19T12:39:09;3.85;;;2.22;;
80707;SDS011;70222;49.204;-122.940;2023-06-19T12:41:41;3.03;;;2.10;;
80707;SDS011;70222;49.204;-122.940;2023-06-19T12:44:07;4.05;;;1.70;;
80707;SDS011;70222;49.204;-122.940;2023-06-19T12:46:33;4.03;;;1.77;;
80707;SDS011;70222;49.204;-122.940;2023-06-19T12:48:59;4.40;;;2.17;;
80707;SDS011;70222;49.204;-122.940;2023-06-19T12:51:25;3.05;;;2.17;;
80707;SDS011;70222;49.204;-122.940;2023-06-19T12:53:51;2.95;;;1.63;;
80707;SDS011;70222;49.204;-122.940;2023-06-19T12:56:18;2.25;;;1.45;;
80707;SDS011;70222;49.204;-122.940;2023-06-19T12:58:44;2.85;;;1.77;;
80707;SDS011;70222;49.204;-122.940;2023-06-19T13:01:10;3.10;;;2.10;;
80707;SDS011;70222;49.204;-122.940;2023-06-19T13:03:36;2.85;;;1.40;;
80707;SDS011;70222;49.204;-122.940;2023-06-19T13:06:02;4.65;;;1.70;;
80707;SDS011;70222;49.204;-122.940;2023-06-19T13:08:28;4.15;;;2.10;;
80707;SDS011;70222;49.204;-122.940;2023-06-19T13:10:54;2.80;;;1.70;;
80707;SDS011;70222;49.204;-122.940;2023-06-19T13:13:21;3.33;;;1.70;;
80707;SDS011;70222;49.204;-122.940;2023-06-19T13:15:47;6.90;;;2.78;;
80707;SDS011;70222;49.204;-122.940;2023-06-19T13:18:13;6.35;;;2.60;;
80707;SDS011;70222;49.204;-122.940;2023-06-19T13:20:39;3.58;;;1.50;;
80707;SDS011;70222;49.204;-122.940;2023-06-19T13:23:05;2.75;;;1.45;;
80707;SDS011;70222;49.204;-122.940;2023-06-19T13:25:31;3.42;;;1.85;;
80707;SDS011;70222;49.204;-122.940;2023-06-19T13:27:58;6.82;;;1.90;;
80707;SDS011;70222;49.204;-122.940;2023-06-19T13:30:24;4.30;;;2.05;;
80707;SDS011;70222;49.204;-122.940;2023-06-19T13:32:50;2.63;;;2.05;;
80707;SDS011;70222;49.204;-122.940;2023-06-19T13:35:16;3.58;;;1.80;;
80707;SDS011;70222;49.204;-122.940;2023-06-19T13:37:42;4.45;;;2.08;;
80707;SDS011;70222;49.204;-122.940;2023-06-19T13:40:08;3.78;;;1.60;;
80707;SDS011;70222;49.204;-122.940;2023-06-19T13:42:35;3.30;;;1.70;;
80707;SDS011;70222;49.204;-122.940;2023-06-19T13:45:01;4.03;;;1.85;;
80707;SDS011;70222;49.204;-122.940;2023-06-19T13:47:27;3.85;;;1.95;;
80707;SDS011;70222;49.204;-122.940;2023-06-19T13:49:54;4.05;;;2.25;;
80707;SDS011;70222;49.204;-122.940;2023-06-19T13:52:20;4.25;;;1.75;;
80707;SDS011;70222;49.204;-122.940;2023-06-19T13:54:46;3.25;;;1.80;;
80707;SDS011;70222;49.204;-122.940;2023-06-19T13:57:12;7.05;;;2.20;;
80707;SDS011;70222;49.204;-122.940;2023-06-19T13:59:38;2.53;;;1.75;;
80707;SDS011;70222;49.204;-122.940;2023-06-19T14:02:04;5.00;;;1.88;;
80707;SDS011;70222;49.204;-122.940;2023-06-19T14:04:31;5.85;;;2.40;;
80707;SDS011;70222;49.204;-122.940;2023-06-19T14:06:57;5.43;;;1.90;;
80707;SDS011;70222;49.204;-122.940;2023-06-19T14:09:23;3.72;;;1.70;;
80707;SDS011;70222;49.204;-122.940;2023-06-19T14:11:49;4.25;;;1.92;;
80707;SDS011;70222;49.204;-122.940;2023-06-19T14:14:15;4.90;;;1.75;;
80707;SDS011;70222;49.204;-122.940;2023-06-19T14:16:41;4.60;;;2.25;;
80707;SDS011;70222;49.204;-122.940;2023-06-19T14:19:07;2.95;;;2.08;;
80707;SDS011;70222;49.204;-122.940;2023-06-19T14:21:33;4.57;;;1.88;;
80707;SDS011;70222;49.204;-122.940;2023-06-19T14:23:59;4.55;;;1.73;;
80707;SDS011;70222;49.204;-122.940;2023-06-19T14:26:26;5.32;;;2.20;;